Time;durP1;ratioP1;P1;durP2;ratioP2;P2;SDS_P1;SDS_P2;PMS_P1;PMS_P2;Temp;Humidity;BMP_temperature;BMP_pressure;BME280_temperature;BME280_humidity;BME280_pressure;Samples;Min_cycle;Max_cycle;Signal;HPM_P1;HPM_P2
2021/01/21 00:02:08;;;;;;;3.25;1.20;;;11.60;68.60;;;;;;4919432;29;20032;-93
2021/01/21 00:04:33;;;;;;;2.15;1.23;;;11.60;68.80;;;;;;4900510;29;20090;-92
2021/01/21 00:06:59;;;;;;;5.90;1.63;;;11.60;68.80;;;;;;4916149;29;20036;-93
2021/01/21 00:09:25;;;;;;;3.58;1.40;;;11.60;68.80;;;;;;4916372;29;20072;-93
2021/01/21 00:11:51;;;;;;;4.38;1.40;;;11.60;68.70;;;;;;4884884;29;20048;-92
2021/01/21 00:14:16;;;;;;;3.63;1.52;;;11.60;68.70;;;;;;4901002;29;20050;-92
2021/01/21 00:16:42;;;;;;;4.03;1.80;;;11.60;68.60;;;;;;4900406;29;20134;-93
2021/01/21 00:19:07;;;;;;;3.53;1.42;;;11.60;68.70;;;;;;4916087;29;20040;-93
2021/01/21 00:21:33;;;;;;;4.05;1.60;;;11.60;68.60;;;;;;4900868;29;20083;-92
2021/01/21 00:23:59;;;;;;;3.78;1.70;;;11.60;68.40;;;;;;4915774;29;20135;-93
2021/01/21 00:26:26;;;;;;;6.93;1.70;;;11.60;68.60;;;;;;4887531;29;20083;-92
2021/01/21 00:28:51;;;;;;;4.38;1.50;;;11.60;68.40;;;;;;4900208;29;20040;-93
2021/01/21 00:31:17;;;;;;;4.53;1.67;;;11.60;68.50;;;;;;4885328;29;20055;-94
2021/01/21 00:33:46;;;;;;;4.53;1.60;;;11.60;68.20;;;;;;4901441;29;20096;-93
2021/01/21 00:36:13;;;;;;;6.57;1.60;;;11.60;68.30;;;;;;4901618;29;20498;-93
2021/01/21 00:38:39;;;;;;;2.78;1.40;;;11.50;68.40;;;;;;4901623;29;20032;-94
2021/01/21 00:41:05;;;;;;;5.30;1.58;;;11.60;68.30;;;;;;4901584;29;20036;-93
2021/01/21 00:43:30;;;;;;;2.78;1.20;;;11.50;68.30;;;;;;4885804;29;20059;-93
2021/01/21 00:45:56;;;;;;;7.85;1.63;;;11.60;68.20;;;;;;4886018;29;20541;-94
2021/01/21 00:48:22;;;;;;;3.28;1.40;;;11.50;67.90;;;;;;4885878;29;20048;-94
2021/01/21 00:50:48;;;;;;;5.53;1.50;;;11.50;67.90;;;;;;4869935;29;20120;-93
2021/01/21 00:53:14;;;;;;;3.25;1.55;;;11.50;67.80;;;;;;4901498;29;20040;-93
2021/01/21 00:55:39;;;;;;;3.95;1.73;;;11.50;67.40;;;;;;4900658;29;20070;-94
2021/01/21 00:58:05;;;;;;;4.50;1.50;;;11.50;67.60;;;;;;4900769;29;20044;-94
2021/01/21 01:00:31;;;;;;;4.88;1.45;;;11.50;67.30;;;;;;4885578;29;20033;-93
2021/01/21 01:02:56;;;;;;;2.80;1.35;;;11.50;67.30;;;;;;4869437;29;20072;-93
2021/01/21 01:05:22;;;;;;;4.47;1.50;;;11.50;68.00;;;;;;4885305;29;20483;-93
2021/01/21 01:07:48;;;;;;;5.35;1.48;;;11.50;67.40;;;;;;4900960;29;20044;-93
2021/01/21 01:10:14;;;;;;;4.25;1.52;;;11.50;67.20;;;;;;4901065;29;20040;-93
2021/01/21 01:12:40;;;;;;;5.43;1.52;;;11.50;66.80;;;;;;4885872;29;20043;-94
2021/01/21 01:15:07;;;;;;;5.80;1.80;;;11.50;66.80;;;;;;4885461;29;20557;-94
2021/01/21 01:17:33;;;;;;;3.78;1.50;;;11.50;66.60;;;;;;4900477;29;20100;-94
2021/01/21 01:19:59;;;;;;;3.38;1.45;;;11.50;66.60;;;;;;4901105;29;20482;-94
2021/01/21 01:22:24;;;;;;;3.75;1.40;;;11.50;66.40;;;;;;4885901;29;20138;-92
2021/01/21 01:24:50;;;;;;;2.50;1.38;;;11.50;66.60;;;;;;4900879;29;20136;-93
2021/01/21 01:27:16;;;;;;;4.60;1.48;;;11.50;66.60;;;;;;4885438;29;20139;-94
2021/01/21 01:29:44;;;;;;;2.42;1.23;;;11.50;66.20;;;;;;4886061;29;20064;-95
2021/01/21 01:32:12;;;;;;;4.78;1.40;;;11.50;66.30;;;;;;4901243;29;20040;-93
2021/01/21 01:34:38;;;;;;;4.43;1.75;;;11.50;66.40;;;;;;4901879;29;20044;-94
2021/01/21 01:37:04;;;;;;;4.88;1.38;;;11.50;66.60;;;;;;4901164;29;20566;-93
2021/01/21 01:39:30;;;;;;;5.82;1.80;;;11.50;66.40;;;;;;4900931;29;20032;-94
2021/01/21 01:41:57;;;;;;;2.97;1.30;;;11.50;66.60;;;;;;4885428;29;20044;-93
2021/01/21 01:44:22;;;;;;;3.63;1.92;;;11.50;66.40;;;;;;4900304;29;20073;-94
2021/01/21 01:46:48;;;;;;;3.10;1.48;;;11.50;66.70;;;;;;4900650;29;20071;-93
2021/01/21 01:49:14;;;;;;;5.90;1.73;;;11.50;66.70;;;;;;4885186;29;20063;-93
2021/01/21 01:51:43;;;;;;;3.80;1.30;;;11.50;66.70;;;;;;4885308;29;20067;-93
2021/01/21 01:54:10;;;;;;;3.13;1.40;;;11.50;66.70;;;;;;4900860;29;20068;-94
2021/01/21 01:56:37;;;;;;;3.40;1.60;;;11.50;66.30;;;;;;4901060;29;20091;-93
2021/01/21 01:59:03;;;;;;;5.70;1.50;;;11.60;66.30;;;;;;4885748;29;20091;-94
2021/01/21 02:01:29;;;;;;;3.38;1.40;;;11.60;66.30;;;;;;4917141;29;20122;-93
2021/01/21 02:03:55;;;;;;;1.85;1.02;;;11.60;65.90;;;;;;4904229;29;20390;-93
2021/01/21 02:06:21;;;;;;;2.95;1.55;;;11.60;66.40;;;;;;4888643;29;20050;-94
2021/01/21 02:11:44;;;;;;;3.72;1.42;;;11.60;66.40;;;;;;4918663;29;20064;-92
2021/01/21 02:14:44;;;;;;;3.05;1.35;;;11.60;66.40;;;;;;4903186;29;20399;-92
2021/01/21 02:17:28;;;;;;;2.10;1.27;;;11.60;66.30;;;;;;4921164;29;20107;-92
2021/01/21 02:20:18;;;;;;;4.13;1.48;;;11.60;66.40;;;;;;4922280;29;20032;-92
2021/01/21 02:23:02;;;;;;;3.30;1.33;;;11.60;66.30;;;;;;4922170;29;20140;-93
2021/01/21 02:25:35;;;;;;;2.47;1.27;;;11.60;66.50;;;;;;4921685;29;20040;-92
2021/01/21 02:28:07;;;;;;;2.88;1.50;;;11.70;66.40;;;;;;4922284;29;20039;-92
2021/01/21 02:30:53;;;;;;;3.35;1.33;;;11.70;66.40;;;;;;4921716;29;20031;-93
2021/01/21 02:33:21;;;;;;;3.17;1.50;;;11.70;66.40;;;;;;4921550;29;20050;-92
2021/01/21 02:35:51;;;;;;;3.55;1.45;;;11.70;66.10;;;;;;4922059;29;20027;-93
2021/01/21 02:38:20;;;;;;;4.00;1.45;;;11.80;66.20;;;;;;4905659;29;20043;-92
2021/01/21 02:40:48;;;;;;;2.45;1.48;;;11.80;66.50;;;;;;4918903;29;20554;-92
2021/01/21 02:43:14;;;;;;;3.28;1.35;;;11.80;66.80;;;;;;4903153;29;20056;-92
2021/01/21 02:45:40;;;;;;;3.28;1.30;;;11.90;66.80;;;;;;4919402;29;20036;-92
2021/01/21 02:48:06;;;;;;;4.00;1.52;;;11.90;66.90;;;;;;4903423;29;20402;-92
2021/01/21 02:50:32;;;;;;;3.08;1.40;;;11.90;66.80;;;;;;4903008;29;20486;-92
2021/01/21 02:53:00;;;;;;;2.28;1.20;;;11.90;66.80;;;;;;4887213;29;20055;-92
2021/01/21 02:55:56;;;;;;;2.72;1.20;;;12.00;67.00;;;;;;4918918;29;20036;-92
2021/01/21 02:58:27;;;;;;;3.95;1.42;;;12.00;67.00;;;;;;4903673;29;20032;-93
2021/01/21 03:00:53;;;;;;;4.07;1.42;;;12.00;66.90;;;;;;4902930;29;20096;-93
2021/01/21 03:03:23;;;;;;;2.53;1.20;;;12.00;66.80;;;;;;4887531;29;20084;-92
2021/01/21 03:05:52;;;;;;;4.20;1.20;;;12.00;66.90;;;;;;4887284;29;20044;-92
2021/01/21 03:08:19;;;;;;;3.47;1.40;;;12.00;66.80;;;;;;4902379;29;20072;-92
2021/01/21 03:10:44;;;;;;;2.42;1.60;;;12.00;67.00;;;;;;4902398;29;20060;-91
2021/01/21 03:13:10;;;;;;;2.35;1.30;;;12.10;67.00;;;;;;4903022;29;20051;-93
2021/01/21 03:15:36;;;;;;;2.20;1.35;;;12.10;66.90;;;;;;4902985;29;20076;-93
2021/01/21 03:18:02;;;;;;;3.88;1.77;;;12.10;66.60;;;;;;4887658;29;20070;-92
2021/01/21 03:20:27;;;;;;;3.08;1.30;;;12.10;66.60;;;;;;4887355;29;20410;-92
2021/01/21 03:22:53;;;;;;;5.15;1.52;;;12.10;66.80;;;;;;4872820;29;20394;-93
2021/01/21 03:25:19;;;;;;;6.10;1.40;;;12.10;67.60;;;;;;4888204;29;20414;-93
2021/01/21 03:27:44;;;;;;;3.83;1.38;;;12.10;67.60;;;;;;4872186;29;20044;-93
2021/01/21 03:30:10;;;;;;;3.50;1.20;;;12.10;67.90;;;;;;4903518;29;20040;-92
2021/01/21 03:32:36;;;;;;;2.83;1.33;;;12.10;67.90;;;;;;4903012;29;20039;-92
2021/01/21 03:35:06;;;;;;;2.70;1.30;;;12.10;68.00;;;;;;4888419;29;20509;-92
2021/01/21 03:37:32;;;;;;;4.18;1.33;;;12.10;67.60;;;;;;4903649;29;20032;-93
2021/01/21 03:39:58;;;;;;;4.05;1.38;;;12.10;67.30;;;;;;4887777;29;20037;-92
2021/01/21 03:42:24;;;;;;;2.08;1.13;;;12.20;67.40;;;;;;4886920;29;20047;-94
2021/01/21 03:44:49;;;;;;;4.20;1.30;;;12.20;67.40;;;;;;4886271;29;20050;-91
2021/01/21 03:47:15;;;;;;;2.38;1.15;;;12.20;67.40;;;;;;4921473;29;20474;-93
2021/01/21 03:49:41;;;;;;;5.28;1.40;;;12.20;67.60;;;;;;4921030;29;20043;-92
2021/01/21 03:52:12;;;;;;;1.58;1.13;;;12.20;67.70;;;;;;4921486;29;20039;-92
2021/01/21 03:54:38;;;;;;;3.03;1.15;;;12.20;67.80;;;;;;4921019;29;20458;-91
2021/01/21 03:57:07;;;;;;;2.10;1.10;;;12.30;67.50;;;;;;4889725;29;20039;-92
2021/01/21 03:59:32;;;;;;;3.22;1.15;;;12.30;67.90;;;;;;4904907;29;20039;-94
2021/01/21 04:01:58;;;;;;;2.08;1.10;;;12.30;68.10;;;;;;4907139;29;20035;-92
2021/01/21 04:04:24;;;;;;;1.65;1.02;;;12.30;68.20;;;;;;4872171;29;20491;-93
2021/01/21 04:06:49;;;;;;;2.22;1.13;;;12.30;68.30;;;;;;4899332;29;20069;-90
2021/01/21 04:09:15;;;;;;;5.80;1.02;;;12.30;68.30;;;;;;4883951;29;20033;-92
2021/01/21 04:11:41;;;;;;;1.67;1.10;;;12.40;68.40;;;;;;4883695;29;20088;-93
2021/01/21 04:14:08;;;;;;;3.00;1.08;;;12.40;68.30;;;;;;4884093;29;20089;-93
2021/01/21 04:16:33;;;;;;;6.00;1.75;;;12.40;68.50;;;;;;4916172;29;20036;-94
2021/01/21 04:18:59;;;;;;;1.83;1.20;;;12.40;68.50;;;;;;4922226;29;20036;-94
2021/01/21 04:21:25;;;;;;;3.42;1.40;;;12.40;68.70;;;;;;4891089;29;20035;-93
2021/01/21 04:23:54;;;;;;;2.40;1.45;;;12.40;68.80;;;;;;4893436;29;20033;-92
2021/01/21 04:26:20;;;;;;;2.20;1.38;;;12.40;70.00;;;;;;4908888;29;20047;-91
2021/01/21 04:28:45;;;;;;;3.88;2.03;;;12.40;70.40;;;;;;4868010;29;20040;-88
2021/01/21 04:31:11;;;;;;;3.95;2.15;;;12.40;70.60;;;;;;4868214;29;20051;-90
2021/01/21 04:33:36;;;;;;;5.40;2.10;;;12.40;70.90;;;;;;4900712;29;20127;-88
2021/01/21 04:36:02;;;;;;;4.05;2.10;;;12.40;71.40;;;;;;4884945;29;20140;-91
2021/01/21 04:38:28;;;;;;;5.70;1.85;;;12.40;71.70;;;;;;4897787;29;20049;-90
2021/01/21 04:40:54;;;;;;;6.47;1.77;;;12.40;72.10;;;;;;4885209;29;20087;-91
2021/01/21 04:43:20;;;;;;;4.10;1.27;;;12.30;73.70;;;;;;4887831;29;20054;-90
2021/01/21 04:45:45;;;;;;;3.38;0.88;;;12.30;74.30;;;;;;4919391;29;20042;-89
2021/01/21 04:48:11;;;;;;;2.90;0.90;;;12.20;72.20;;;;;;4887730;29;20051;-90
2021/01/21 04:50:38;;;;;;;2.08;0.90;;;12.00;71.90;;;;;;4919479;29;20039;-90
2021/01/21 04:53:06;;;;;;;2.47;0.80;;;11.90;71.90;;;;;;4887698;29;20055;-88
2021/01/21 04:55:36;;;;;;;2.75;0.65;;;11.70;71.50;;;;;;4878651;29;20041;-89
2021/01/21 04:58:19;;;;;;;3.83;1.00;;;11.50;71.30;;;;;;4896893;29;20033;-88
2021/01/21 05:00:46;;;;;;;1.73;0.63;;;11.40;71.70;;;;;;4899372;29;20036;-89
2021/01/21 05:03:12;;;;;;;2.67;0.80;;;11.30;71.00;;;;;;4915412;29;20422;-88
2021/01/21 05:05:39;;;;;;;2.30;0.95;;;11.10;70.60;;;;;;4902795;29;20039;-89
2021/01/21 05:08:05;;;;;;;1.67;0.80;;;11.00;70.60;;;;;;4915605;29;20048;-87
2021/01/21 05:10:32;;;;;;;3.35;0.80;;;10.90;70.20;;;;;;4898281;29;20048;-89
2021/01/21 05:12:58;;;;;;;2.72;0.90;;;10.80;70.90;;;;;;4880214;29;20071;-90
2021/01/21 05:15:24;;;;;;;2.25;0.68;;;10.70;71.00;;;;;;4865296;29;20404;-88
2021/01/21 05:17:50;;;;;;;2.92;0.60;;;10.50;71.10;;;;;;4881389;29;20047;-89
2021/01/21 05:20:16;;;;;;;2.95;0.70;;;10.40;70.90;;;;;;4913482;29;20064;-88
2021/01/21 05:22:42;;;;;;;3.15;0.70;;;10.30;71.10;;;;;;4882016;29;20091;-87
2021/01/21 05:25:08;;;;;;;2.78;0.80;;;10.30;71.30;;;;;;4897774;29;20498;-88
2021/01/21 05:27:35;;;;;;;2.45;0.60;;;10.20;70.80;;;;;;4883411;29;20051;-88
2021/01/21 05:30:02;;;;;;;2.50;0.63;;;10.10;70.90;;;;;;4901042;29;20569;-88
2021/01/21 05:32:28;;;;;;;1.95;0.70;;;10.10;71.00;;;;;;4883498;29;20051;-88
2021/01/21 05:34:54;;;;;;;2.85;0.77;;;10.10;71.20;;;;;;4880236;29;20045;-87
2021/01/21 05:37:19;;;;;;;1.77;0.70;;;10.10;71.10;;;;;;4885346;29;20040;-87
2021/01/21 05:39:46;;;;;;;2.03;0.68;;;10.10;71.20;;;;;;4869185;29;20040;-86
2021/01/21 05:42:13;;;;;;;1.83;0.90;;;10.10;71.30;;;;;;4899715;29;20493;-87
2021/01/21 05:44:39;;;;;;;2.22;0.70;;;10.00;71.30;;;;;;4902089;29;20047;-87
2021/01/21 05:47:06;;;;;;;3.95;1.33;;;10.00;71.30;;;;;;4917100;29;20035;-87
2021/01/21 05:49:33;;;;;;;1.88;0.90;;;10.00;71.30;;;;;;4920729;29;20046;-87
2021/01/21 05:51:59;;;;;;;3.90;0.90;;;10.00;71.30;;;;;;4912732;29;20167;-87
2021/01/21 05:54:27;;;;;;;2.50;0.80;;;9.90;71.20;;;;;;4901706;29;20040;-87
2021/01/21 05:57:01;;;;;;;2.90;0.90;;;9.90;71.40;;;;;;4912502;29;20095;-87
2021/01/21 05:59:28;;;;;;;2.10;0.80;;;9.80;71.50;;;;;;4920642;29;20043;-87
2021/01/21 06:01:55;;;;;;;3.63;0.90;;;9.80;71.60;;;;;;4905598;29;20036;-87
2021/01/21 06:04:34;;;;;;;1.00;0.70;;;9.80;71.60;;;;;;4920849;29;20095;-87
2021/01/21 06:07:00;;;;;;;3.08;0.95;;;9.80;71.60;;;;;;4902285;29;20040;-86
2021/01/21 06:09:30;;;;;;;4.38;0.90;;;9.70;71.80;;;;;;4883625;29;20131;-87
2021/01/21 06:12:04;;;;;;;2.80;1.00;;;9.70;71.90;;;;;;4882889;29;20079;-87
2021/01/21 06:14:30;;;;;;;2.92;1.05;;;9.60;71.90;;;;;;4867345;29;20048;-87
2021/01/21 06:16:57;;;;;;;4.65;1.10;;;9.60;72.10;;;;;;4899940;29;20054;-87
2021/01/21 06:19:23;;;;;;;4.88;1.10;;;9.50;72.20;;;;;;4920292;29;20031;-87
2021/01/21 06:21:57;;;;;;;3.65;1.20;;;9.50;72.30;;;;;;4897502;29;20048;-87
2021/01/21 06:24:30;;;;;;;2.03;1.00;;;9.40;72.50;;;;;;4901210;29;20041;-86
2021/01/21 06:26:59;;;;;;;4.15;0.98;;;9.40;72.60;;;;;;4884549;29;20053;-87
2021/01/21 06:29:28;;;;;;;4.70;1.20;;;9.40;72.70;;;;;;4917356;29;20040;-85
2021/01/21 06:32:00;;;;;;;5.18;1.10;;;9.40;72.80;;;;;;4904786;29;20498;-87
2021/01/21 06:34:30;;;;;;;3.35;1.10;;;9.30;72.80;;;;;;4920135;29;20040;-86
2021/01/21 06:37:03;;;;;;;3.60;0.90;;;9.30;72.90;;;;;;4918454;29;20035;-87
2021/01/21 06:39:56;;;;;;;3.63;1.02;;;9.30;73.00;;;;;;4919800;29;20040;-88
2021/01/21 06:42:35;;;;;;;4.50;1.23;;;9.20;72.90;;;;;;4920121;29;20039;-87
2021/01/21 06:45:03;;;;;;;6.07;1.35;;;9.20;73.00;;;;;;4914409;29;20184;-87
2021/01/21 06:47:30;;;;;;;6.38;1.25;;;9.20;73.10;;;;;;4899187;29;20076;-86
2021/01/21 06:49:57;;;;;;;7.75;1.40;;;9.20;73.30;;;;;;4901971;29;20039;-86
2021/01/21 06:52:28;;;;;;;4.28;1.48;;;9.10;73.70;;;;;;4920147;29;20035;-87
2021/01/21 06:54:55;;;;;;;7.18;1.40;;;9.10;73.10;;;;;;4918952;29;20043;-87
2021/01/21 06:57:36;;;;;;;6.90;1.80;;;9.10;73.20;;;;;;4886741;29;20044;-87
2021/01/21 07:00:06;;;;;;;3.95;1.27;;;9.10;73.30;;;;;;4919414;29;20039;-87
2021/01/21 07:02:45;;;;;;;4.43;1.50;;;9.00;73.30;;;;;;4904101;29;20040;-87
2021/01/21 07:05:13;;;;;;;6.40;1.70;;;9.00;73.30;;;;;;4892564;29;20127;-86
2021/01/21 07:08:00;;;;;;;5.25;1.33;;;9.00;73.30;;;;;;4919378;29;20036;-86
2021/01/21 07:10:44;;;;;;;5.35;1.75;;;9.00;73.30;;;;;;4919449;29;20083;-87
2021/01/21 07:13:17;;;;;;;9.93;1.80;;;8.90;73.40;;;;;;4936622;29;20569;-86
2021/01/21 07:15:58;;;;;;;7.85;1.77;;;8.90;73.40;;;;;;4915441;29;20391;-87
2021/01/21 07:18:35;;;;;;;6.55;1.95;;;8.90;73.50;;;;;;4899009;29;20059;-87
2021/01/21 07:21:08;;;;;;;4.57;1.38;;;8.80;73.40;;;;;;4879503;29;20132;-87
2021/01/21 07:23:47;;;;;;;4.35;1.30;;;8.80;73.50;;;;;;4900053;29;20039;-87
2021/01/21 07:26:28;;;;;;;3.75;1.50;;;8.80;73.50;;;;;;4896196;29;20039;-88
2021/01/21 07:29:32;;;;;;;8.25;1.73;;;8.70;73.40;;;;;;4899221;29;20059;-88
2021/01/21 07:31:59;;;;;;;4.50;1.80;;;8.70;73.40;;;;;;4916536;29;20118;-88
2021/01/21 07:34:27;;;;;;;2.85;1.30;;;8.70;73.50;;;;;;4917669;29;20038;-88
2021/01/21 07:37:18;;;;;;;4.07;1.33;;;8.60;73.40;;;;;;4934569;29;20110;-88
2021/01/21 07:39:56;;;;;;;7.45;1.58;;;8.60;73.40;;;;;;4918458;29;20043;-88
2021/01/21 07:42:43;;;;;;;4.13;1.65;;;8.60;73.80;;;;;;4919285;29;20482;-88
2021/01/21 07:45:16;;;;;;;4.40;1.38;;;8.50;73.40;;;;;;4892626;29;20044;-88
2021/01/21 07:47:43;;;;;;;3.80;1.40;;;8.50;73.50;;;;;;4894601;29;20164;-88
2021/01/21 07:50:22;;;;;;;5.75;1.30;;;8.50;73.50;;;;;;4919153;29;20063;-88
2021/01/21 07:52:49;;;;;;;8.38;1.70;;;8.50;73.60;;;;;;4918805;29;20091;-88
2021/01/21 07:55:35;;;;;;;5.35;1.45;;;8.40;73.60;;;;;;4919036;29;20043;-88
2021/01/21 07:58:17;;;;;;;6.72;1.73;;;8.40;73.80;;;;;;4918775;29;20087;-90
2021/01/21 08:00:43;;;;;;;4.07;1.50;;;8.40;73.80;;;;;;4889149;29;20039;-89
2021/01/21 08:03:09;;;;;;;4.68;1.25;;;8.40;73.90;;;;;;4934523;29;20122;-89
2021/01/21 08:05:35;;;;;;;5.57;1.45;;;8.30;73.80;;;;;;4918215;29;20450;-89
2021/01/21 08:08:03;;;;;;;5.90;1.40;;;8.30;73.90;;;;;;4918886;29;20052;-89
2021/01/21 08:10:31;;;;;;;7.93;1.63;;;8.30;73.80;;;;;;4897768;23;20805;-87
2021/01/21 08:13:06;;;;;;;8.13;1.57;;;8.30;73.90;;;;;;4884003;29;20036;-87
2021/01/21 08:15:33;;;;;;;5.88;1.50;;;8.30;73.90;;;;;;4906172;29;20039;-86
2021/01/21 08:17:59;;;;;;;6.40;1.88;;;8.30;73.90;;;;;;4902686;29;20377;-89
2021/01/21 08:20:27;;;;;;;4.90;1.58;;;8.30;74.00;;;;;;4918500;29;20043;-85
2021/01/21 08:22:58;;;;;;;4.53;1.25;;;8.20;74.00;;;;;;4918113;29;20035;-84
2021/01/21 08:25:27;;;;;;;4.35;1.60;;;8.20;73.90;;;;;;4902354;29;20032;-85
2021/01/21 08:27:53;;;;;;;7.68;1.83;;;8.20;74.00;;;;;;4898857;29;20137;-84
2021/01/21 08:30:25;;;;;;;5.80;1.83;;;8.20;74.00;;;;;;4894576;29;20384;-84
2021/01/21 08:33:11;;;;;;;7.65;1.77;;;8.20;74.10;;;;;;4900138;29;20036;-83
2021/01/21 08:35:57;;;;;;;4.72;1.23;;;8.20;74.20;;;;;;4911627;29;20043;-85
2021/01/21 08:38:27;;;;;;;3.72;1.30;;;8.20;74.20;;;;;;4915340;29;20484;-85
2021/01/21 08:40:53;;;;;;;4.88;1.45;;;8.20;74.30;;;;;;4917520;29;20099;-85
2021/01/21 08:43:20;;;;;;;5.55;1.35;;;8.20;74.50;;;;;;4918157;29;20031;-85
2021/01/21 08:45:46;;;;;;;3.88;1.42;;;8.20;74.50;;;;;;4910217;29;20040;-85
2021/01/21 08:48:32;;;;;;;5.63;1.52;;;8.20;74.50;;;;;;4898908;29;20040;-85
2021/01/21 08:50:58;;;;;;;6.97;1.92;;;8.20;74.80;;;;;;4898954;29;20044;-84
2021/01/21 08:53:26;;;;;;;5.25;1.27;;;8.20;74.90;;;;;;4900263;29;20040;-84
2021/01/21 08:55:53;;;;;;;5.00;1.40;;;8.20;74.90;;;;;;4880143;29;20064;-85
2021/01/21 08:58:26;;;;;;;9.57;1.90;;;8.20;75.00;;;;;;4873822;29;20044;-84
2021/01/21 09:01:12;;;;;;;6.78;1.63;;;8.30;75.10;;;;;;4902660;29;20042;-84
2021/01/21 09:03:44;;;;;;;6.35;1.75;;;8.30;75.20;;;;;;4902859;29;20074;-85
2021/01/21 09:06:11;;;;;;;5.57;1.35;;;8.30;75.40;;;;;;4917745;29;20040;-85
2021/01/21 09:08:56;;;;;;;4.93;1.17;;;8.30;75.40;;;;;;4901991;29;20043;-85
2021/01/21 09:11:32;;;;;;;5.80;1.50;;;8.30;75.20;;;;;;4898833;29;20052;-85
2021/01/21 09:14:02;;;;;;;5.03;1.60;;;8.30;75.20;;;;;;4889225;29;20499;-85
2021/01/21 09:16:44;;;;;;;5.60;1.60;;;8.30;75.20;;;;;;4864856;29;20049;-85
2021/01/21 09:19:17;;;;;;;4.68;1.40;;;8.30;75.20;;;;;;4897173;29;20035;-86
2021/01/21 09:22:29;;;;;;;5.95;1.60;;;8.40;75.60;;;;;;4883907;29;20036;-85
2021/01/21 09:24:56;;;;;;;7.20;1.73;;;8.40;75.80;;;;;;4865143;29;20127;-85
2021/01/21 09:27:25;;;;;;;6.80;1.48;;;8.50;75.70;;;;;;4898452;29;20040;-85
2021/01/21 09:29:52;;;;;;;4.57;1.52;;;8.60;75.50;;;;;;4881640;29;20040;-85
2021/01/21 09:32:20;;;;;;;3.42;1.23;;;8.60;75.30;;;;;;4916090;29;20044;-85
2021/01/21 09:34:55;;;;;;;3.22;1.33;;;8.70;75.10;;;;;;4915703;29;20036;-85
2021/01/21 09:37:21;;;;;;;6.43;1.30;;;8.80;75.10;;;;;;4881822;29;20072;-85
2021/01/21 09:39:48;;;;;;;7.85;1.65;;;8.90;74.90;;;;;;4898321;29;20040;-85
2021/01/21 09:42:17;;;;;;;4.80;1.50;;;8.90;74.90;;;;;;4884905;29;20037;-85
2021/01/21 09:44:43;;;;;;;6.22;1.50;;;9.00;74.80;;;;;;4879835;29;20033;-85
2021/01/21 09:47:09;;;;;;;8.45;1.88;;;9.00;74.60;;;;;;4886141;29;20048;-85
2021/01/21 09:49:35;;;;;;;3.55;1.23;;;9.10;74.50;;;;;;4881703;29;20109;-85
2021/01/21 09:52:00;;;;;;;7.13;1.50;;;9.10;74.30;;;;;;4881047;29;20067;-86
2021/01/21 09:54:28;;;;;;;7.38;1.77;;;9.10;74.20;;;;;;4898820;29;20028;-86
2021/01/21 09:56:54;;;;;;;7.93;1.60;;;9.20;74.20;;;;;;4897716;29;20040;-86
2021/01/21 09:59:21;;;;;;;3.65;1.20;;;9.20;74.10;;;;;;4882840;29;20032;-86
2021/01/21 10:01:47;;;;;;;2.65;1.10;;;9.20;73.70;;;;;;4882915;29;20044;-86
2021/01/21 10:04:13;;;;;;;5.57;1.40;;;9.20;73.80;;;;;;4897974;29;20167;-86
2021/01/21 10:06:38;;;;;;;2.85;1.50;;;9.20;73.80;;;;;;4882775;29;20487;-87
2021/01/21 10:09:04;;;;;;;5.38;1.40;;;9.20;73.70;;;;;;4882823;29;20112;-87
2021/01/21 10:11:30;;;;;;;6.18;1.60;;;9.20;73.70;;;;;;4876517;29;20047;-87
2021/01/21 10:13:55;;;;;;;4.95;1.30;;;9.20;73.50;;;;;;4878673;29;20085;-86
2021/01/21 10:16:21;;;;;;;5.35;1.35;;;9.20;73.40;;;;;;4898352;29;20048;-86
2021/01/21 10:18:47;;;;;;;4.28;1.63;;;9.20;73.30;;;;;;4887218;29;20064;-85
2021/01/21 10:21:12;;;;;;;4.85;1.42;;;9.20;73.00;;;;;;4880228;29;20049;-85
2021/01/21 10:23:38;;;;;;;4.57;1.33;;;9.20;73.20;;;;;;4888227;29;20035;-85
2021/01/21 10:26:04;;;;;;;4.82;1.25;;;9.20;73.30;;;;;;4885702;29;20039;-85
2021/01/21 10:28:32;;;;;;;4.03;1.40;;;9.20;73.40;;;;;;4883944;29;20277;-86
2021/01/21 10:30:58;;;;;;;4.38;1.40;;;9.20;73.40;;;;;;4885945;29;20477;-85
2021/01/21 10:33:23;;;;;;;5.55;1.30;;;9.20;73.40;;;;;;4902479;29;20078;-85
2021/01/21 10:35:49;;;;;;;6.03;1.80;;;9.20;73.40;;;;;;4901474;29;20060;-85
2021/01/21 10:38:15;;;;;;;4.43;1.60;;;9.30;73.20;;;;;;4885681;29;20498;-84
2021/01/21 10:40:40;;;;;;;5.43;1.92;;;9.20;73.10;;;;;;4883989;29;20112;-85
2021/01/21 10:43:07;;;;;;;5.53;1.33;;;9.30;73.30;;;;;;4866978;29;20037;-85
2021/01/21 10:45:35;;;;;;;3.83;1.15;;;9.30;73.30;;;;;;4867461;29;20136;-85
2021/01/21 10:48:01;;;;;;;4.03;1.33;;;9.30;73.20;;;;;;4882912;29;20063;-85
2021/01/21 10:50:26;;;;;;;6.10;1.65;;;9.30;73.30;;;;;;4885835;29;20163;-85
2021/01/21 10:52:52;;;;;;;6.78;1.65;;;9.30;73.90;;;;;;4869992;29;20131;-84
2021/01/21 10:55:18;;;;;;;4.93;1.30;;;9.30;73.20;;;;;;4869709;29;20451;-85
2021/01/21 10:57:43;;;;;;;5.40;1.60;;;9.30;73.10;;;;;;4900898;29;20040;-85
2021/01/21 11:00:09;;;;;;;7.05;1.52;;;9.30;73.00;;;;;;4879740;29;20043;-85
2021/01/21 11:02:35;;;;;;;5.10;1.20;;;9.40;73.00;;;;;;4904270;29;20505;-85
2021/01/21 11:05:00;;;;;;;7.07;1.75;;;9.40;72.90;;;;;;4874066;29;20105;-86
2021/01/21 11:07:26;;;;;;;6.40;1.88;;;9.30;72.90;;;;;;4882573;29;20402;-83
2021/01/21 11:09:52;;;;;;;3.78;1.20;;;9.40;73.50;;;;;;4895743;29;20060;-85
2021/01/21 11:12:17;;;;;;;4.28;1.27;;;9.40;72.90;;;;;;4888162;29;20040;-85
2021/01/21 11:14:45;;;;;;;8.15;1.80;;;9.40;73.00;;;;;;4919789;29;20039;-85
2021/01/21 11:17:10;;;;;;;2.53;1.20;;;9.40;72.90;;;;;;4920175;29;20382;-85
2021/01/21 11:19:36;;;;;;;4.10;1.17;;;9.40;72.90;;;;;;4890871;29;20051;-85
2021/01/21 11:22:02;;;;;;;4.43;1.60;;;9.40;72.90;;;;;;4850322;29;20108;-81
2021/01/21 11:24:27;;;;;;;8.60;2.15;;;9.50;73.10;;;;;;4876565;29;20040;-82
2021/01/21 11:26:53;;;;;;;4.63;1.27;;;9.50;73.10;;;;;;4874334;29;20048;-85
2021/01/21 11:29:18;;;;;;;8.95;1.50;;;9.50;73.00;;;;;;4860683;29;20100;-86
2021/01/21 11:31:44;;;;;;;5.80;1.30;;;9.50;73.60;;;;;;4872486;29;20191;-85
2021/01/21 11:34:10;;;;;;;6.70;1.40;;;9.50;72.90;;;;;;4885915;29;20058;-85
2021/01/21 11:36:35;;;;;;;5.20;1.52;;;9.60;72.80;;;;;;4874802;29;20052;-85
2021/01/21 11:39:01;;;;;;;3.85;1.27;;;9.60;72.60;;;;;;4885518;29;20075;-85
2021/01/21 11:41:26;;;;;;;5.10;1.70;;;9.50;72.60;;;;;;4879888;29;20032;-85
2021/01/21 11:43:52;;;;;;;7.75;1.88;;;9.60;72.50;;;;;;4869897;29;20573;-85
2021/01/21 11:46:18;;;;;;;8.55;2.10;;;9.60;72.50;;;;;;4869597;29;20051;-85
2021/01/21 11:48:43;;;;;;;3.92;1.30;;;9.60;72.10;;;;;;4888927;29;20477;-86
2021/01/21 11:51:09;;;;;;;6.90;1.50;;;9.60;71.90;;;;;;4884783;29;20028;-85
2021/01/21 11:53:34;;;;;;;5.43;1.25;;;9.60;72.00;;;;;;4883102;29;20062;-85
2021/01/21 11:56:01;;;;;;;5.18;1.60;;;9.60;72.00;;;;;;4881586;29;20044;-86
2021/01/21 11:58:27;;;;;;;6.18;1.40;;;9.70;72.20;;;;;;4885645;29;20032;-86
2021/01/21 12:00:53;;;;;;;5.63;1.40;;;9.60;72.00;;;;;;4865270;29;20043;-85
2021/01/21 12:03:18;;;;;;;6.38;1.50;;;9.70;72.00;;;;;;4863247;29;20040;-86
2021/01/21 12:05:44;;;;;;;5.88;1.50;;;9.70;72.00;;;;;;4882017;29;20062;-86
2021/01/21 12:08:10;;;;;;;6.60;1.60;;;9.70;72.00;;;;;;4887110;29;20556;-86
2021/01/21 12:10:35;;;;;;;8.52;2.20;;;9.70;71.90;;;;;;4886987;29;20492;-85
2021/01/21 12:13:01;;;;;;;13.02;2.40;;;9.70;71.70;;;;;;4887460;29;20130;-87
2021/01/21 12:15:26;;;;;;;9.55;2.30;;;9.70;71.80;;;;;;4895903;29;20041;-88
2021/01/21 12:17:52;;;;;;;11.35;2.33;;;9.70;71.60;;;;;;4881123;29;20092;-88
2021/01/21 12:20:18;;;;;;;7.38;2.13;;;9.70;71.80;;;;;;4871752;29;20048;-90
2021/01/21 12:22:44;;;;;;;8.85;2.67;;;9.80;71.80;;;;;;4882009;29;20044;-88
2021/01/21 12:25:10;;;;;;;7.10;2.67;;;9.80;71.60;;;;;;4880974;29;20479;-88
2021/01/21 12:27:36;;;;;;;8.80;1.65;;;9.80;71.50;;;;;;4873350;29;20056;-87
2021/01/21 12:30:02;;;;;;;7.65;2.88;;;9.80;71.50;;;;;;4878409;29;20060;-86
2021/01/21 12:32:27;;;;;;;6.97;2.25;;;9.80;71.40;;;;;;4878278;29;20151;-87
2021/01/21 12:34:53;;;;;;;6.18;1.70;;;9.80;71.50;;;;;;4898327;29;20155;-86
2021/01/21 12:37:19;;;;;;;9.05;2.17;;;9.80;71.40;;;;;;4868126;29;20123;-88
2021/01/21 12:39:44;;;;;;;6.03;1.83;;;9.80;71.40;;;;;;4883258;29;20036;-88
2021/01/21 12:42:10;;;;;;;7.90;1.95;;;9.80;71.10;;;;;;4900686;29;20465;-89
2021/01/21 12:44:45;;;;;;;5.28;1.60;;;9.80;71.20;;;;;;4879901;29;20036;-89
2021/01/21 12:47:11;;;;;;;7.05;2.05;;;9.80;70.60;;;;;;4884232;29;20095;-89
2021/01/21 12:49:49;;;;;;;4.40;1.10;;;9.80;70.90;;;;;;4895294;29;20514;-88
2021/01/21 12:52:15;;;;;;;5.07;1.50;;;9.80;70.90;;;;;;4898927;29;20123;-88
2021/01/21 12:54:47;;;;;;;4.68;1.60;;;9.80;70.80;;;;;;4899417;29;20579;-86
2021/01/21 12:57:13;;;;;;;5.78;1.63;;;9.80;70.70;;;;;;4900758;29;20122;-90
2021/01/21 12:59:40;;;;;;;4.20;1.63;;;9.80;70.70;;;;;;4904056;29;20032;-88
2021/01/21 13:02:11;;;;;;;7.45;1.92;;;9.90;70.80;;;;;;4899321;29;20036;-89
2021/01/21 13:04:37;;;;;;;7.13;1.70;;;9.80;70.80;;;;;;4883775;29;20047;-89